Brant, MI (48614)

7:29 AM EST en Marzo 01, 2015 (GMT -0500)
Brant Township | Change Station
CLOSE
Current Station
Estación meteorológica personal
Location: Brant, MI
Altura: 614 ft
Estaciones meteorológicas cercanas

Alt 614 ft 43.26 °N, 84.23 °W | Updated 0 second ago

Nieve
Nieve
5.7 ° F
Sensación térmica 6 ° F
N
0.0
Viento Variable Viento desde ESE
Gusts 0.0 mph

Hoy
Alta -- | Baja -- ° F
--% Posibilidad de precipitaciones
Ayer
Alta -- | Baja -- ° F
Precip. -- pul
7:13 AM 6:25 PM
Gibosa creciente, 85% visible
Presión 30.39 pul
Visibilidad 5.0 Millas
Nubes Despejado
Vientos helados 6 ° F
Punto de rocío 3 ° F
Humedad 90%
Precipitaciones 0.00 pul
Espesor de la nieve No disponible.
UV 0 de una escala de 12
Polen .40 de una escala de 12
Calidad del aire No disponible.
Flu Activity No disponible.
METAR KRNP 011214Z AUTO 00000KT 5SM BR CLR M15/M16 A3039 RMK AO2 T11501160

More Conditions Fewer Conditions

Presión 30.39 pul
Visibilidad 5.0 Millas
Nubes Despejado
Vientos helados 6 ° F
Punto de rocío 3 ° F
Humedad 90%
Precipitaciones 0.00 pul
Espesor de la nieve No disponible.
UV 0 de una escala de 12
Polen .40 de una escala de 12
Calidad del aire No disponible.
Flu Activity No disponible.
METAR KRNP 011214Z AUTO 00000KT 5SM BR CLR M15/M16 A3039 RMK AO2 T11501160

More Conditions Fewer Conditions

10-Day Weather Forecast

Almanac

Astronomía

Mar. 01, 2015 Salida Puesta
Hora real
Crepúsculo civil
Crepúsculo náutico
Crepúsculo astronómico
Luna
Horas de luz
Horas de luz
Tomorrow will be .
, % of the Moon is Illuminated

Extremos de hoy

Máximos del estado Bajos del estado

Community

WunderPhotos

Upload Photos

1,801,365 ¡fotos cargadas!

WunderBlogs® & News

Nearby

Calidad del aire

  Calidad del aire Índice AQ Contaminante
Not available.

Grosos de nieve

Estación Profundido Altura

Actividad de terremotos

Ciudad Distance Mag. Tiempo y dato
Magnitud mínima muestra es 2,5.

Temperaturas de aguas costeras

Lugar Temperatura

Estaciones meteorológicas cercanas